sensor_id;sensor_type;location;lat;lon;timestamp;P1;durP1;ratioP1;P2;durP2;ratioP2
47103;SDS011;32853;52.164;5.400;2022-08-30T00:02:17;7.10;;;2.40;;
47103;SDS011;32853;52.164;5.400;2022-08-30T00:04:43;5.10;;;2.28;;
47103;SDS011;32853;52.164;5.400;2022-08-30T00:07:09;6.00;;;2.20;;
47103;SDS011;32853;52.164;5.400;2022-08-30T00:09:34;7.33;;;3.17;;
47103;SDS011;32853;52.164;5.400;2022-08-30T00:11:59;5.73;;;2.00;;
47103;SDS011;32853;52.164;5.400;2022-08-30T00:14:25;7.45;;;2.53;;
47103;SDS011;32853;52.164;5.400;2022-08-30T00:16:51;4.95;;;2.60;;
47103;SDS011;32853;52.164;5.400;2022-08-30T00:19:17;8.07;;;2.20;;
47103;SDS011;32853;52.164;5.400;2022-08-30T00:24:12;6.13;;;2.70;;
47103;SDS011;32853;52.164;5.400;2022-08-30T00:26:38;6.33;;;2.97;;
47103;SDS011;32853;52.164;5.400;2022-08-30T00:29:03;5.47;;;2.42;;
47103;SDS011;32853;52.164;5.400;2022-08-30T00:31:32;9.23;;;3.10;;
47103;SDS011;32853;52.164;5.400;2022-08-30T00:33:57;6.05;;;2.60;;
47103;SDS011;32853;52.164;5.400;2022-08-30T00:36:23;7.17;;;2.77;;
47103;SDS011;32853;52.164;5.400;2022-08-30T00:38:48;6.90;;;2.93;;
47103;SDS011;32853;52.164;5.400;2022-08-30T00:41:13;6.03;;;2.78;;
47103;SDS011;32853;52.164;5.400;2022-08-30T00:43:49;5.80;;;3.30;;
47103;SDS011;32853;52.164;5.400;2022-08-30T00:46:14;6.90;;;2.70;;
47103;SDS011;32853;52.164;5.400;2022-08-30T00:48:41;6.87;;;2.80;;
47103;SDS011;32853;52.164;5.400;2022-08-30T00:51:10;8.63;;;3.20;;
47103;SDS011;32853;52.164;5.400;2022-08-30T00:53:39;5.27;;;3.23;;
47103;SDS011;32853;52.164;5.400;2022-08-30T00:58:55;7.72;;;3.40;;
47103;SDS011;32853;52.164;5.400;2022-08-30T01:01:26;9.07;;;2.83;;
47103;SDS011;32853;52.164;5.400;2022-08-30T01:03:52;9.68;;;3.40;;
47103;SDS011;32853;52.164;5.400;2022-08-30T01:06:18;5.75;;;3.03;;
47103;SDS011;32853;52.164;5.400;2022-08-30T01:08:44;7.95;;;3.28;;
47103;SDS011;32853;52.164;5.400;2022-08-30T01:14:07;8.52;;;3.25;;
47103;SDS011;32853;52.164;5.400;2022-08-30T01:16:44;10.73;;;3.60;;
47103;SDS011;32853;52.164;5.400;2022-08-30T01:28:04;5.72;;;3.13;;
47103;SDS011;32853;52.164;5.400;2022-08-30T01:30:41;5.57;;;3.25;;
47103;SDS011;32853;52.164;5.400;2022-08-30T01:33:07;5.88;;;3.75;;
47103;SDS011;32853;52.164;5.400;2022-08-30T01:35:42;8.52;;;3.80;;
47103;SDS011;32853;52.164;5.400;2022-08-30T01:38:11;11.80;;;4.40;;
47103;SDS011;32853;52.164;5.400;2022-08-30T01:40:49;6.80;;;3.85;;
47103;SDS011;32853;52.164;5.400;2022-08-30T01:46:49;9.52;;;4.53;;
47103;SDS011;32853;52.164;5.400;2022-08-30T01:51:44;11.23;;;4.13;;
47103;SDS011;32853;52.164;5.400;2022-08-30T01:54:10;7.97;;;4.20;;
47103;SDS011;32853;52.164;5.400;2022-08-30T01:56:35;11.48;;;4.60;;
47103;SDS011;32853;52.164;5.400;2022-08-30T01:59:01;12.37;;;4.30;;
47103;SDS011;32853;52.164;5.400;2022-08-30T02:01:27;7.80;;;4.07;;
47103;SDS011;32853;52.164;5.400;2022-08-30T02:03:54;10.50;;;4.25;;
47103;SDS011;32853;52.164;5.400;2022-08-30T02:06:21;5.63;;;3.83;;
47103;SDS011;32853;52.164;5.400;2022-08-30T02:08:47;7.28;;;4.47;;
47103;SDS011;32853;52.164;5.400;2022-08-30T02:11:14;8.07;;;4.53;;
47103;SDS011;32853;52.164;5.400;2022-08-30T02:13:41;8.40;;;4.63;;
47103;SDS011;32853;52.164;5.400;2022-08-30T02:16:10;6.47;;;4.35;;
47103;SDS011;32853;52.164;5.400;2022-08-30T02:18:38;7.22;;;4.65;;
47103;SDS011;32853;52.164;5.400;2022-08-30T02:21:05;8.98;;;4.28;;
47103;SDS011;32853;52.164;5.400;2022-08-30T02:23:31;8.37;;;4.13;;
47103;SDS011;32853;52.164;5.400;2022-08-30T02:25:56;7.60;;;4.30;;
47103;SDS011;32853;52.164;5.400;2022-08-30T02:28:21;10.17;;;5.20;;
47103;SDS011;32853;52.164;5.400;2022-08-30T02:30:47;8.85;;;5.10;;
47103;SDS011;32853;52.164;5.400;2022-08-30T02:33:13;8.35;;;4.53;;
47103;SDS011;32853;52.164;5.400;2022-08-30T02:35:41;9.10;;;4.60;;
47103;SDS011;32853;52.164;5.400;2022-08-30T02:38:07;7.57;;;4.47;;
47103;SDS011;32853;52.164;5.400;2022-08-30T02:40:33;8.95;;;4.85;;
47103;SDS011;32853;52.164;5.400;2022-08-30T02:43:03;6.68;;;4.50;;
47103;SDS011;32853;52.164;5.400;2022-08-30T02:47:57;8.77;;;5.03;;
47103;SDS011;32853;52.164;5.400;2022-08-30T02:50:26;8.57;;;4.72;;
47103;SDS011;32853;52.164;5.400;2022-08-30T02:52:52;8.20;;;4.88;;
47103;SDS011;32853;52.164;5.400;2022-08-30T02:55:18;5.90;;;4.25;;
47103;SDS011;32853;52.164;5.400;2022-08-30T02:57:43;8.43;;;5.18;;
47103;SDS011;32853;52.164;5.400;2022-08-30T03:00:10;7.13;;;4.57;;
47103;SDS011;32853;52.164;5.400;2022-08-30T03:02:40;7.55;;;4.65;;
47103;SDS011;32853;52.164;5.400;2022-08-30T03:05:09;12.53;;;5.30;;
47103;SDS011;32853;52.164;5.400;2022-08-30T03:07:37;10.02;;;5.13;;
47103;SDS011;32853;52.164;5.400;2022-08-30T03:10:04;7.82;;;4.85;;
47103;SDS011;32853;52.164;5.400;2022-08-30T03:12:30;9.30;;;5.20;;
47103;SDS011;32853;52.164;5.400;2022-08-30T03:14:56;11.10;;;5.47;;
47103;SDS011;32853;52.164;5.400;2022-08-30T03:17:22;11.82;;;5.78;;
47103;SDS011;32853;52.164;5.400;2022-08-30T03:19:48;8.67;;;5.20;;
47103;SDS011;32853;52.164;5.400;2022-08-30T03:22:13;8.33;;;5.07;;
47103;SDS011;32853;52.164;5.400;2022-08-30T03:24:39;7.27;;;5.00;;
47103;SDS011;32853;52.164;5.400;2022-08-30T03:27:04;9.30;;;5.57;;
47103;SDS011;32853;52.164;5.400;2022-08-30T03:29:31;8.00;;;5.00;;
47103;SDS011;32853;52.164;5.400;2022-08-30T03:32:09;6.57;;;5.05;;
47103;SDS011;32853;52.164;5.400;2022-08-30T03:34:35;8.23;;;5.18;;
47103;SDS011;32853;52.164;5.400;2022-08-30T03:37:01;7.10;;;5.00;;
47103;SDS011;32853;52.164;5.400;2022-08-30T03:39:40;8.33;;;5.57;;
47103;SDS011;32853;52.164;5.400;2022-08-30T03:42:06;8.50;;;5.22;;
47103;SDS011;32853;52.164;5.400;2022-08-30T03:44:32;6.83;;;5.13;;
47103;SDS011;32853;52.164;5.400;2022-08-30T03:46:57;6.90;;;4.80;;
47103;SDS011;32853;52.164;5.400;2022-08-30T03:49:22;8.52;;;4.95;;
47103;SDS011;32853;52.164;5.400;2022-08-30T03:51:48;7.47;;;5.47;;
47103;SDS011;32853;52.164;5.400;2022-08-30T03:54:15;11.23;;;6.03;;
47103;SDS011;32853;52.164;5.400;2022-08-30T03:56:42;12.00;;;5.75;;
47103;SDS011;32853;52.164;5.400;2022-08-30T03:59:07;7.83;;;5.20;;
47103;SDS011;32853;52.164;5.400;2022-08-30T04:01:33;9.03;;;5.17;;
47103;SDS011;32853;52.164;5.400;2022-08-30T04:03:58;8.27;;;5.30;;
47103;SDS011;32853;52.164;5.400;2022-08-30T04:06:23;7.65;;;4.82;;
47103;SDS011;32853;52.164;5.400;2022-08-30T04:08:50;6.55;;;4.30;;
47103;SDS011;32853;52.164;5.400;2022-08-30T04:11:15;8.20;;;5.30;;
47103;SDS011;32853;52.164;5.400;2022-08-30T04:13:41;7.53;;;5.10;;
47103;SDS011;32853;52.164;5.400;2022-08-30T04:16:07;8.57;;;5.63;;
47103;SDS011;32853;52.164;5.400;2022-08-30T04:18:33;6.95;;;4.97;;
47103;SDS011;32853;52.164;5.400;2022-08-30T04:21:01;7.10;;;4.55;;
47103;SDS011;32853;52.164;5.400;2022-08-30T04:23:29;8.95;;;5.20;;
47103;SDS011;32853;52.164;5.400;2022-08-30T04:25:55;6.95;;;5.07;;
47103;SDS011;32853;52.164;5.400;2022-08-30T04:28:20;8.10;;;5.00;;
47103;SDS011;32853;52.164;5.400;2022-08-30T04:30:46;9.60;;;5.28;;
47103;SDS011;32853;52.164;5.400;2022-08-30T04:33:12;8.83;;;5.00;;
47103;SDS011;32853;52.164;5.400;2022-08-30T04:35:40;7.35;;;5.30;;
47103;SDS011;32853;52.164;5.400;2022-08-30T04:38:10;6.97;;;6.10;;
47103;SDS011;32853;52.164;5.400;2022-08-30T04:40:37;6.80;;;5.35;;
47103;SDS011;32853;52.164;5.400;2022-08-30T04:45:41;8.00;;;5.70;;
47103;SDS011;32853;52.164;5.400;2022-08-30T04:48:06;7.93;;;5.43;;
47103;SDS011;32853;52.164;5.400;2022-08-30T04:50:33;8.38;;;4.95;;
47103;SDS011;32853;52.164;5.400;2022-08-30T04:52:58;9.43;;;5.27;;
47103;SDS011;32853;52.164;5.400;2022-08-30T04:55:24;9.67;;;5.90;;
47103;SDS011;32853;52.164;5.400;2022-08-30T04:58:00;10.60;;;5.30;;
47103;SDS011;32853;52.164;5.400;2022-08-30T05:00:27;8.13;;;5.72;;
47103;SDS011;32853;52.164;5.400;2022-08-30T05:02:53;9.80;;;5.88;;
47103;SDS011;32853;52.164;5.400;2022-08-30T05:05:18;8.63;;;5.60;;
47103;SDS011;32853;52.164;5.400;2022-08-30T05:08:09;11.38;;;5.72;;
47103;SDS011;32853;52.164;5.400;2022-08-30T05:10:37;9.15;;;5.65;;
47103;SDS011;32853;52.164;5.400;2022-08-30T05:13:08;9.77;;;5.82;;
47103;SDS011;32853;52.164;5.400;2022-08-30T05:15:35;8.15;;;5.60;;
47103;SDS011;32853;52.164;5.400;2022-08-30T05:18:02;8.37;;;5.80;;
47103;SDS011;32853;52.164;5.400;2022-08-30T05:20:28;6.15;;;5.22;;
47103;SDS011;32853;52.164;5.400;2022-08-30T05:22:53;11.82;;;5.93;;
47103;SDS011;32853;52.164;5.400;2022-08-30T05:25:20;7.67;;;5.73;;
47103;SDS011;32853;52.164;5.400;2022-08-30T05:27:50;6.88;;;5.50;;
47103;SDS011;32853;52.164;5.400;2022-08-30T05:30:17;7.53;;;5.35;;
47103;SDS011;32853;52.164;5.400;2022-08-30T05:32:46;9.10;;;5.68;;
47103;SDS011;32853;52.164;5.400;2022-08-30T05:35:12;9.47;;;5.87;;
47103;SDS011;32853;52.164;5.400;2022-08-30T05:37:39;7.07;;;5.57;;
47103;SDS011;32853;52.164;5.400;2022-08-30T05:42:36;7.88;;;5.43;;
47103;SDS011;32853;52.164;5.400;2022-08-30T05:45:03;11.05;;;5.35;;
47103;SDS011;32853;52.164;5.400;2022-08-30T05:47:29;9.75;;;5.93;;
47103;SDS011;32853;52.164;5.400;2022-08-30T05:49:55;8.48;;;4.85;;
47103;SDS011;32853;52.164;5.400;2022-08-30T05:52:20;8.13;;;4.93;;
47103;SDS011;32853;52.164;5.400;2022-08-30T05:54:55;12.53;;;5.20;;
47103;SDS011;32853;52.164;5.400;2022-08-30T05:57:30;6.13;;;4.57;;
47103;SDS011;32853;52.164;5.400;2022-08-30T06:00:00;6.57;;;5.03;;
47103;SDS011;32853;52.164;5.400;2022-08-30T06:02:26;6.22;;;4.72;;
47103;SDS011;32853;52.164;5.400;2022-08-30T06:04:52;8.33;;;4.57;;
47103;SDS011;32853;52.164;5.400;2022-08-30T06:07:25;5.70;;;4.10;;
47103;SDS011;32853;52.164;5.400;2022-08-30T06:09:51;6.03;;;4.57;;
47103;SDS011;32853;52.164;5.400;2022-08-30T06:12:16;6.33;;;4.40;;
47103;SDS011;32853;52.164;5.400;2022-08-30T06:14:44;6.32;;;4.45;;
47103;SDS011;32853;52.164;5.400;2022-08-30T06:17:09;6.40;;;4.60;;
47103;SDS011;32853;52.164;5.400;2022-08-30T06:19:34;7.33;;;4.47;;
47103;SDS011;32853;52.164;5.400;2022-08-30T06:22:02;9.00;;;4.67;;
47103;SDS011;32853;52.164;5.400;2022-08-30T06:24:27;7.85;;;4.75;;
47103;SDS011;32853;52.164;5.400;2022-08-30T06:26:53;9.03;;;5.40;;
47103;SDS011;32853;52.164;5.400;2022-08-30T06:29:19;9.97;;;4.27;;
47103;SDS011;32853;52.164;5.400;2022-08-30T06:31:45;7.50;;;3.70;;
47103;SDS011;32853;52.164;5.400;2022-08-30T06:34:11;6.82;;;4.15;;
47103;SDS011;32853;52.164;5.400;2022-08-30T06:36:37;7.90;;;4.20;;
47103;SDS011;32853;52.164;5.400;2022-08-30T06:39:04;6.28;;;3.92;;
47103;SDS011;32853;52.164;5.400;2022-08-30T06:41:30;6.32;;;3.88;;
47103;SDS011;32853;52.164;5.400;2022-08-30T06:43:59;6.53;;;4.30;;
47103;SDS011;32853;52.164;5.400;2022-08-30T06:46:27;5.63;;;3.80;;
47103;SDS011;32853;52.164;5.400;2022-08-30T06:48:55;6.78;;;4.15;;
47103;SDS011;32853;52.164;5.400;2022-08-30T06:51:22;5.25;;;3.15;;
47103;SDS011;32853;52.164;5.400;2022-08-30T06:53:50;6.03;;;3.10;;
47103;SDS011;32853;52.164;5.400;2022-08-30T06:56:20;5.97;;;3.13;;
47103;SDS011;32853;52.164;5.400;2022-08-30T06:58:49;5.45;;;2.88;;
47103;SDS011;32853;52.164;5.400;2022-08-30T07:01:17;5.20;;;2.45;;
47103;SDS011;32853;52.164;5.400;2022-08-30T07:03:46;6.18;;;2.17;;
47103;SDS011;32853;52.164;5.400;2022-08-30T07:06:12;5.95;;;2.40;;
47103;SDS011;32853;52.164;5.400;2022-08-30T07:08:37;4.10;;;2.35;;
47103;SDS011;32853;52.164;5.400;2022-08-30T07:11:04;2.80;;;1.50;;
47103;SDS011;32853;52.164;5.400;2022-08-30T07:13:31;3.90;;;1.50;;
47103;SDS011;32853;52.164;5.400;2022-08-30T07:16:07;3.03;;;1.25;;
47103;SDS011;32853;52.164;5.400;2022-08-30T07:18:41;2.85;;;1.27;;
47103;SDS011;32853;52.164;5.400;2022-08-30T07:21:18;3.08;;;1.02;;
47103;SDS011;32853;52.164;5.400;2022-08-30T07:23:49;4.53;;;1.03;;
47103;SDS011;32853;52.164;5.400;2022-08-30T07:26:17;2.08;;;0.90;;
47103;SDS011;32853;52.164;5.400;2022-08-30T07:28:47;4.32;;;1.70;;
47103;SDS011;32853;52.164;5.400;2022-08-30T07:31:14;2.15;;;0.70;;
47103;SDS011;32853;52.164;5.400;2022-08-30T07:33:40;3.08;;;0.80;;
47103;SDS011;32853;52.164;5.400;2022-08-30T07:36:13;4.43;;;1.13;;
47103;SDS011;32853;52.164;5.400;2022-08-30T07:38:41;7.40;;;1.00;;
47103;SDS011;32853;52.164;5.400;2022-08-30T07:41:07;1.70;;;0.70;;
47103;SDS011;32853;52.164;5.400;2022-08-30T07:43:35;3.60;;;0.60;;
47103;SDS011;32853;52.164;5.400;2022-08-30T07:46:04;2.70;;;0.68;;
47103;SDS011;32853;52.164;5.400;2022-08-30T07:48:33;4.30;;;0.50;;
47103;SDS011;32853;52.164;5.400;2022-08-30T07:51:02;1.70;;;0.52;;
47103;SDS011;32853;52.164;5.400;2022-08-30T07:53:38;2.80;;;0.50;;
47103;SDS011;32853;52.164;5.400;2022-08-30T07:56:03;1.67;;;0.55;;
47103;SDS011;32853;52.164;5.400;2022-08-30T07:58:29;3.50;;;0.70;;
47103;SDS011;32853;52.164;5.400;2022-08-30T08:00:54;1.43;;;0.50;;
47103;SDS011;32853;52.164;5.400;2022-08-30T08:03:25;4.70;;;0.50;;
47103;SDS011;32853;52.164;5.400;2022-08-30T08:05:52;3.03;;;0.50;;
47103;SDS011;32853;52.164;5.400;2022-08-30T08:08:22;2.08;;;0.50;;
47103;SDS011;32853;52.164;5.400;2022-08-30T08:10:50;1.70;;;0.63;;
47103;SDS011;32853;52.164;5.400;2022-08-30T08:13:17;1.20;;;0.57;;
47103;SDS011;32853;52.164;5.400;2022-08-30T08:15:50;2.40;;;0.57;;
47103;SDS011;32853;52.164;5.400;2022-08-30T08:18:30;1.48;;;0.45;;
47103;SDS011;32853;52.164;5.400;2022-08-30T08:20:56;1.10;;;0.50;;
47103;SDS011;32853;52.164;5.400;2022-08-30T08:23:28;1.13;;;0.50;;
47103;SDS011;32853;52.164;5.400;2022-08-30T08:25:54;1.50;;;0.50;;
47103;SDS011;32853;52.164;5.400;2022-08-30T08:28:20;1.50;;;0.43;;
47103;SDS011;32853;52.164;5.400;2022-08-30T08:30:56;1.70;;;0.50;;
47103;SDS011;32853;52.164;5.400;2022-08-30T08:33:22;1.77;;;0.55;;
47103;SDS011;32853;52.164;5.400;2022-08-30T08:35:47;3.88;;;1.10;;
47103;SDS011;32853;52.164;5.400;2022-08-30T08:38:13;2.63;;;0.80;;
47103;SDS011;32853;52.164;5.400;2022-08-30T08:40:54;1.30;;;0.40;;
47103;SDS011;32853;52.164;5.400;2022-08-30T08:43:29;2.15;;;0.50;;
47103;SDS011;32853;52.164;5.400;2022-08-30T08:46:12;1.40;;;0.60;;
47103;SDS011;32853;52.164;5.400;2022-08-30T08:48:47;1.80;;;0.60;;
47103;SDS011;32853;52.164;5.400;2022-08-30T08:51:16;1.50;;;0.30;;
47103;SDS011;32853;52.164;5.400;2022-08-30T08:54:15;1.80;;;0.43;;
47103;SDS011;32853;52.164;5.400;2022-08-30T08:56:48;2.40;;;0.50;;
47103;SDS011;32853;52.164;5.400;2022-08-30T08:59:14;2.27;;;0.60;;
47103;SDS011;32853;52.164;5.400;2022-08-30T09:01:40;2.65;;;0.63;;
47103;SDS011;32853;52.164;5.400;2022-08-30T09:04:11;1.57;;;0.40;;
47103;SDS011;32853;52.164;5.400;2022-08-30T09:09:23;1.40;;;0.55;;
47103;SDS011;32853;52.164;5.400;2022-08-30T09:14:22;2.60;;;0.60;;
47103;SDS011;32853;52.164;5.400;2022-08-30T09:17:02;1.55;;;0.50;;
47103;SDS011;32853;52.164;5.400;2022-08-30T09:22:12;1.33;;;0.45;;
47103;SDS011;32853;52.164;5.400;2022-08-30T09:24:48;1.47;;;0.40;;
47103;SDS011;32853;52.164;5.400;2022-08-30T09:27:18;1.48;;;0.40;;
47103;SDS011;32853;52.164;5.400;2022-08-30T09:29:50;5.20;;;0.60;;
47103;SDS011;32853;52.164;5.400;2022-08-30T09:35:05;1.35;;;0.50;;
47103;SDS011;32853;52.164;5.400;2022-08-30T09:37:46;3.72;;;1.40;;
47103;SDS011;32853;52.164;5.400;2022-08-30T09:53:35;3.78;;;0.60;;
47103;SDS011;32853;52.164;5.400;2022-08-30T09:56:07;4.18;;;1.05;;
47103;SDS011;32853;52.164;5.400;2022-08-30T10:07:19;2.90;;;0.47;;
47103;SDS011;32853;52.164;5.400;2022-08-30T10:10:06;2.37;;;0.50;;
47103;SDS011;32853;52.164;5.400;2022-08-30T10:13:00;1.30;;;0.80;;
47103;SDS011;32853;52.164;5.400;2022-08-30T10:15:56;2.05;;;0.50;;
47103;SDS011;32853;52.164;5.400;2022-08-30T10:24:25;2.03;;;0.40;;
47103;SDS011;32853;52.164;5.400;2022-08-30T10:29:48;1.45;;;0.50;;
47103;SDS011;32853;52.164;5.400;2022-08-30T10:32:25;2.60;;;0.60;;
47103;SDS011;32853;52.164;5.400;2022-08-30T10:35:00;2.67;;;0.80;;
47103;SDS011;32853;52.164;5.400;2022-08-30T10:37:37;2.03;;;0.50;;
47103;SDS011;32853;52.164;5.400;2022-08-30T10:40:28;1.35;;;0.40;;
47103;SDS011;32853;52.164;5.400;2022-08-30T10:43:59;0.77;;;0.30;;
47103;SDS011;32853;52.164;5.400;2022-08-30T10:46:18;1.33;;;0.70;;
47103;SDS011;32853;52.164;5.400;2022-08-30T10:49:08;1.20;;;0.40;;
47103;SDS011;32853;52.164;5.400;2022-08-30T10:54:29;2.17;;;0.60;;
47103;SDS011;32853;52.164;5.400;2022-08-30T10:59:35;1.45;;;0.43;;
47103;SDS011;32853;52.164;5.400;2022-08-30T11:13:25;1.77;;;0.50;;
47103;SDS011;32853;52.164;5.400;2022-08-30T11:16:02;2.25;;;0.50;;
47103;SDS011;32853;52.164;5.400;2022-08-30T11:18:44;2.77;;;0.90;;
47103;SDS011;32853;52.164;5.400;2022-08-30T11:29:51;3.70;;;0.60;;
47103;SDS011;32853;52.164;5.400;2022-08-30T11:34:57;3.72;;;1.30;;
47103;SDS011;32853;52.164;5.400;2022-08-30T11:42:48;1.55;;;0.52;;
47103;SDS011;32853;52.164;5.400;2022-08-30T11:56:15;2.72;;;0.57;;
47103;SDS011;32853;52.164;5.400;2022-08-30T12:03:56;3.70;;;0.57;;
47103;SDS011;32853;52.164;5.400;2022-08-30T12:09:06;1.10;;;0.50;;
47103;SDS011;32853;52.164;5.400;2022-08-30T12:14:03;2.92;;;0.60;;
47103;SDS011;32853;52.164;5.400;2022-08-30T12:19:28;3.30;;;0.75;;
47103;SDS011;32853;52.164;5.400;2022-08-30T12:21:57;1.63;;;0.63;;
47103;SDS011;32853;52.164;5.400;2022-08-30T12:27:43;4.82;;;0.80;;
47103;SDS011;32853;52.164;5.400;2022-08-30T12:29:52;2.65;;;0.57;;
47103;SDS011;32853;52.164;5.400;2022-08-30T12:32:20;1.30;;;0.60;;
47103;SDS011;32853;52.164;5.400;2022-08-30T12:37:26;5.82;;;1.00;;
47103;SDS011;32853;52.164;5.400;2022-08-30T12:40:02;3.40;;;0.68;;
47103;SDS011;32853;52.164;5.400;2022-08-30T12:42:35;3.80;;;0.80;;
47103;SDS011;32853;52.164;5.400;2022-08-30T12:45:08;2.25;;;0.90;;
47103;SDS011;32853;52.164;5.400;2022-08-30T12:50:15;2.35;;;0.63;;
47103;SDS011;32853;52.164;5.400;2022-08-30T12:52:56;4.37;;;0.70;;
47103;SDS011;32853;52.164;5.400;2022-08-30T12:55:32;2.03;;;0.70;;
47103;SDS011;32853;52.164;5.400;2022-08-30T12:58:05;6.32;;;0.82;;
47103;SDS011;32853;52.164;5.400;2022-08-30T13:00:40;2.15;;;0.60;;
47103;SDS011;32853;52.164;5.400;2022-08-30T13:06:01;2.72;;;0.70;;
47103;SDS011;32853;52.164;5.400;2022-08-30T13:08:35;3.38;;;0.65;;
47103;SDS011;32853;52.164;5.400;2022-08-30T13:11:10;1.30;;;0.57;;
47103;SDS011;32853;52.164;5.400;2022-08-30T13:13:50;3.17;;;0.70;;
47103;SDS011;32853;52.164;5.400;2022-08-30T13:22:01;3.03;;;0.73;;
47103;SDS011;32853;52.164;5.400;2022-08-30T13:24:27;1.85;;;0.73;;
47103;SDS011;32853;52.164;5.400;2022-08-30T13:26:54;2.38;;;0.90;;
47103;SDS011;32853;52.164;5.400;2022-08-30T13:29:25;2.97;;;0.85;;
47103;SDS011;32853;52.164;5.400;2022-08-30T13:31:52;1.70;;;0.70;;
47103;SDS011;32853;52.164;5.400;2022-08-30T13:34:18;1.83;;;0.80;;
47103;SDS011;32853;52.164;5.400;2022-08-30T13:36:50;2.97;;;0.60;;
47103;SDS011;32853;52.164;5.400;2022-08-30T13:39:19;4.50;;;0.90;;
47103;SDS011;32853;52.164;5.400;2022-08-30T13:41:45;2.73;;;0.80;;
47103;SDS011;32853;52.164;5.400;2022-08-30T13:44:10;4.43;;;1.45;;
47103;SDS011;32853;52.164;5.400;2022-08-30T13:46:39;2.63;;;1.20;;
47103;SDS011;32853;52.164;5.400;2022-08-30T13:49:14;3.38;;;1.20;;
47103;SDS011;32853;52.164;5.400;2022-08-30T13:51:43;2.78;;;1.13;;
47103;SDS011;32853;52.164;5.400;2022-08-30T13:54:08;4.03;;;1.70;;
47103;SDS011;32853;52.164;5.400;2022-08-30T13:56:36;5.23;;;1.37;;
47103;SDS011;32853;52.164;5.400;2022-08-30T13:59:05;3.92;;;1.85;;
47103;SDS011;32853;52.164;5.400;2022-08-30T14:01:31;4.70;;;1.25;;
47103;SDS011;32853;52.164;5.400;2022-08-30T14:04:07;2.90;;;1.33;;
47103;SDS011;32853;52.164;5.400;2022-08-30T14:06:33;3.08;;;0.80;;
47103;SDS011;32853;52.164;5.400;2022-08-30T14:08:59;3.58;;;0.75;;
47103;SDS011;32853;52.164;5.400;2022-08-30T14:11:26;2.90;;;0.80;;
47103;SDS011;32853;52.164;5.400;2022-08-30T14:13:51;2.17;;;0.90;;
47103;SDS011;32853;52.164;5.400;2022-08-30T14:16:17;2.10;;;0.83;;
47103;SDS011;32853;52.164;5.400;2022-08-30T14:18:43;1.85;;;0.60;;
47103;SDS011;32853;52.164;5.400;2022-08-30T14:21:09;4.03;;;1.00;;
47103;SDS011;32853;52.164;5.400;2022-08-30T14:23:39;5.63;;;0.90;;
47103;SDS011;32853;52.164;5.400;2022-08-30T14:26:09;4.63;;;0.60;;
47103;SDS011;32853;52.164;5.400;2022-08-30T14:28:39;2.00;;;0.68;;
47103;SDS011;32853;52.164;5.400;2022-08-30T14:31:08;2.05;;;0.77;;
47103;SDS011;32853;52.164;5.400;2022-08-30T14:33:33;1.92;;;0.70;;
47103;SDS011;32853;52.164;5.400;2022-08-30T14:36:02;2.30;;;0.60;;
47103;SDS011;32853;52.164;5.400;2022-08-30T14:38:38;2.03;;;0.82;;
47103;SDS011;32853;52.164;5.400;2022-08-30T14:41:06;7.43;;;1.30;;
47103;SDS011;32853;52.164;5.400;2022-08-30T14:43:31;2.10;;;0.70;;
47103;SDS011;32853;52.164;5.400;2022-08-30T14:45:57;3.92;;;0.70;;
47103;SDS011;32853;52.164;5.400;2022-08-30T14:48:26;3.40;;;0.60;;
47103;SDS011;32853;52.164;5.400;2022-08-30T14:50:54;2.53;;;0.93;;
47103;SDS011;32853;52.164;5.400;2022-08-30T14:53:23;2.30;;;0.50;;
47103;SDS011;32853;52.164;5.400;2022-08-30T14:55:49;5.05;;;0.82;;
47103;SDS011;32853;52.164;5.400;2022-08-30T14:58:14;1.20;;;0.60;;
47103;SDS011;32853;52.164;5.400;2022-08-30T15:00:42;2.35;;;0.70;;
47103;SDS011;32853;52.164;5.400;2022-08-30T15:03:13;3.53;;;0.70;;
47103;SDS011;32853;52.164;5.400;2022-08-30T15:05:40;1.45;;;0.52;;
47103;SDS011;32853;52.164;5.400;2022-08-30T15:08:11;2.63;;;0.60;;
47103;SDS011;32853;52.164;5.400;2022-08-30T15:10:38;2.58;;;0.50;;
47103;SDS011;32853;52.164;5.400;2022-08-30T15:13:05;1.40;;;0.50;;
47103;SDS011;32853;52.164;5.400;2022-08-30T15:15:31;2.33;;;0.68;;
47103;SDS011;32853;52.164;5.400;2022-08-30T15:17:58;1.52;;;0.50;;
47103;SDS011;32853;52.164;5.400;2022-08-30T15:20:25;2.80;;;0.63;;
47103;SDS011;32853;52.164;5.400;2022-08-30T15:22:51;1.38;;;0.40;;
47103;SDS011;32853;52.164;5.400;2022-08-30T15:25:16;1.50;;;0.70;;
47103;SDS011;32853;52.164;5.400;2022-08-30T15:27:42;2.88;;;0.50;;
47103;SDS011;32853;52.164;5.400;2022-08-30T15:30:07;1.60;;;0.60;;
47103;SDS011;32853;52.164;5.400;2022-08-30T15:32:33;1.40;;;0.50;;
47103;SDS011;32853;52.164;5.400;2022-08-30T15:34:59;3.77;;;0.50;;
47103;SDS011;32853;52.164;5.400;2022-08-30T15:37:27;1.35;;;0.50;;
47103;SDS011;32853;52.164;5.400;2022-08-30T15:39:53;1.27;;;0.40;;
47103;SDS011;32853;52.164;5.400;2022-08-30T15:42:18;2.90;;;0.50;;
47103;SDS011;32853;52.164;5.400;2022-08-30T15:44:44;3.25;;;0.50;;
47103;SDS011;32853;52.164;5.400;2022-08-30T15:47:10;2.67;;;0.60;;
47103;SDS011;32853;52.164;5.400;2022-08-30T15:49:36;3.17;;;0.50;;
47103;SDS011;32853;52.164;5.400;2022-08-30T15:52:11;4.70;;;0.50;;
47103;SDS011;32853;52.164;5.400;2022-08-30T15:54:37;2.10;;;0.40;;
47103;SDS011;32853;52.164;5.400;2022-08-30T15:57:09;1.00;;;0.40;;
47103;SDS011;32853;52.164;5.400;2022-08-30T15:59:34;1.70;;;0.60;;
47103;SDS011;32853;52.164;5.400;2022-08-30T16:02:00;2.85;;;0.52;;
47103;SDS011;32853;52.164;5.400;2022-08-30T16:04:29;1.37;;;0.50;;
47103;SDS011;32853;52.164;5.400;2022-08-30T16:06:55;2.88;;;0.60;;
47103;SDS011;32853;52.164;5.400;2022-08-30T16:09:21;2.17;;;0.70;;
47103;SDS011;32853;52.164;5.400;2022-08-30T16:11:46;2.17;;;0.70;;
47103;SDS011;32853;52.164;5.400;2022-08-30T16:14:12;1.02;;;0.40;;
47103;SDS011;32853;52.164;5.400;2022-08-30T16:16:39;1.48;;;0.40;;
47103;SDS011;32853;52.164;5.400;2022-08-30T16:19:05;1.83;;;0.45;;
47103;SDS011;32853;52.164;5.400;2022-08-30T16:21:32;1.10;;;0.50;;
47103;SDS011;32853;52.164;5.400;2022-08-30T16:24:00;2.53;;;0.55;;
47103;SDS011;32853;52.164;5.400;2022-08-30T16:26:27;2.85;;;0.60;;
47103;SDS011;32853;52.164;5.400;2022-08-30T16:28:54;3.75;;;0.57;;
47103;SDS011;32853;52.164;5.400;2022-08-30T16:31:20;5.60;;;0.70;;
47103;SDS011;32853;52.164;5.400;2022-08-30T16:33:46;1.23;;;0.40;;
47103;SDS011;32853;52.164;5.400;2022-08-30T16:36:11;2.50;;;0.50;;
47103;SDS011;32853;52.164;5.400;2022-08-30T16:38:37;1.80;;;0.60;;
47103;SDS011;32853;52.164;5.400;2022-08-30T16:41:04;3.25;;;0.65;;
47103;SDS011;32853;52.164;5.400;2022-08-30T16:43:31;1.90;;;0.43;;
47103;SDS011;32853;52.164;5.400;2022-08-30T16:46:00;1.53;;;0.50;;
47103;SDS011;32853;52.164;5.400;2022-08-30T16:48:31;1.40;;;0.50;;
47103;SDS011;32853;52.164;5.400;2022-08-30T16:51:14;4.70;;;0.70;;
47103;SDS011;32853;52.164;5.400;2022-08-30T16:53:43;1.63;;;0.50;;
47103;SDS011;32853;52.164;5.400;2022-08-30T16:56:10;1.58;;;0.47;;
47103;SDS011;32853;52.164;5.400;2022-08-30T16:58:37;2.17;;;0.40;;
47103;SDS011;32853;52.164;5.400;2022-08-30T17:01:03;1.73;;;0.60;;
47103;SDS011;32853;52.164;5.400;2022-08-30T17:05:58;1.83;;;0.50;;
47103;SDS011;32853;52.164;5.400;2022-08-30T17:08:24;3.90;;;0.60;;
47103;SDS011;32853;52.164;5.400;2022-08-30T17:10:49;2.10;;;0.60;;
47103;SDS011;32853;52.164;5.400;2022-08-30T17:13:15;1.97;;;0.60;;
47103;SDS011;32853;52.164;5.400;2022-08-30T17:15:41;2.37;;;0.60;;
47103;SDS011;32853;52.164;5.400;2022-08-30T17:18:09;3.33;;;0.60;;
47103;SDS011;32853;52.164;5.400;2022-08-30T17:20:52;3.90;;;0.70;;
47103;SDS011;32853;52.164;5.400;2022-08-30T17:23:17;5.60;;;0.70;;
47103;SDS011;32853;52.164;5.400;2022-08-30T17:25:42;1.70;;;0.40;;
47103;SDS011;32853;52.164;5.400;2022-08-30T17:28:12;3.50;;;0.60;;